createdAt,value
2022-08-14T00:00:43.905Z,0.00
2022-08-14T00:01:54.887Z,0.00
2022-08-14T00:02:44.041Z,0.00
2022-08-14T00:03:43.783Z,0.00
2022-08-14T00:04:45.050Z,0.00
2022-08-14T00:05:44.413Z,0.00
2022-08-14T00:06:43.655Z,0.00
2022-08-14T00:07:43.618Z,0.00
2022-08-14T00:08:44.835Z,0.00
2022-08-14T00:10:02.578Z,0.00
2022-08-14T00:10:51.544Z,0.00
2022-08-14T00:11:43.529Z,0.00
2022-08-14T00:12:43.429Z,0.00
2022-08-14T00:13:43.363Z,0.00
2022-08-14T00:14:43.344Z,0.00
2022-08-14T00:15:44.623Z,0.00
2022-08-14T00:16:45.164Z,0.00
2022-08-14T00:17:48.197Z,0.00
2022-08-14T00:19:06.017Z,0.00
2022-08-14T00:19:43.116Z,0.00
2022-08-14T00:20:43.368Z,0.00
2022-08-14T00:21:43.028Z,0.00
2022-08-14T00:22:57.119Z,0.00
2022-08-14T00:23:42.967Z,0.00
2022-08-14T00:24:42.908Z,0.00
2022-08-14T00:25:42.966Z,0.00
2022-08-14T00:26:42.822Z,0.00
2022-08-14T00:27:42.782Z,0.00
2022-08-14T00:28:42.742Z,0.00
2022-08-14T00:29:43.026Z,0.00
2022-08-14T00:30:42.829Z,0.00
2022-08-14T00:31:45.714Z,0.00
2022-08-14T00:32:53.211Z,0.00
2022-08-14T00:33:52.532Z,0.00
2022-08-14T00:34:46.337Z,0.00
2022-08-14T00:36:34.066Z,0.00
2022-08-14T00:36:49.186Z,0.00
2022-08-14T00:37:42.365Z,0.00
2022-08-14T00:38:42.321Z,0.00
2022-08-14T00:39:42.620Z,0.00
2022-08-14T00:40:46.122Z,0.00
2022-08-14T00:41:42.448Z,0.00
2022-08-14T00:42:54.894Z,0.00
2022-08-14T00:43:43.201Z,0.00
2022-08-14T00:44:42.700Z,0.00
2022-08-14T00:45:42.029Z,0.00
2022-08-14T00:46:41.988Z,0.00
2022-08-14T00:47:43.275Z,0.00
2022-08-14T00:48:41.903Z,0.00
2022-08-14T00:49:43.090Z,0.00
2022-08-14T00:50:41.818Z,0.00
2022-08-14T00:51:41.780Z,0.00
2022-08-14T00:52:41.734Z,0.00
2022-08-14T00:53:43.118Z,0.00
2022-08-14T00:54:41.663Z,0.00
2022-08-14T00:55:41.609Z,0.00
2022-08-14T00:56:41.562Z,0.00
2022-08-14T00:57:41.525Z,0.00
2022-08-14T00:58:45.272Z,0.00
2022-08-14T00:59:41.490Z,0.00
2022-08-14T01:00:47.630Z,0.00
2022-08-14T01:01:41.455Z,0.00
2022-08-14T01:02:41.317Z,0.00
2022-08-14T01:03:42.278Z,0.00
2022-08-14T01:04:53.687Z,0.00
2022-08-14T01:05:41.748Z,0.00
2022-08-14T01:06:41.145Z,0.00
2022-08-14T01:07:50.394Z,0.00
2022-08-14T01:08:57.414Z,0.00
2022-08-14T01:09:41.019Z,0.00
2022-08-14T01:10:41.010Z,0.00
2022-08-14T01:11:40.935Z,0.00
2022-08-14T01:12:40.902Z,0.00
2022-08-14T01:13:42.899Z,0.00
2022-08-14T01:14:40.899Z,0.00
2022-08-14T01:15:57.809Z,0.00
2022-08-14T01:16:40.834Z,0.00
2022-08-14T01:17:45.337Z,0.00
2022-08-14T01:18:40.642Z,0.00
2022-08-14T01:19:41.262Z,0.00
2022-08-14T01:20:41.114Z,0.00
2022-08-14T01:21:46.988Z,0.00
2022-08-14T01:22:40.570Z,0.00
2022-08-14T01:23:46.463Z,0.00
2022-08-14T01:24:40.392Z,0.00
2022-08-14T01:25:40.347Z,0.00
2022-08-14T01:26:40.310Z,0.00
2022-08-14T01:27:56.658Z,0.00
2022-08-14T01:28:57.006Z,0.00
2022-08-14T01:29:58.860Z,0.00
2022-08-14T01:30:40.156Z,0.00
2022-08-14T01:31:40.097Z,0.00
2022-08-14T01:32:42.833Z,0.00
2022-08-14T01:34:07.429Z,0.00
2022-08-14T01:35:21.220Z,0.00
2022-08-14T01:36:05.700Z,0.00
2022-08-14T01:36:39.902Z,0.00
2022-08-14T01:37:44.225Z,0.00
2022-08-14T01:38:39.803Z,0.00
2022-08-14T01:39:39.818Z,0.00
2022-08-14T01:40:41.946Z,0.00
2022-08-14T01:41:39.680Z,0.00
2022-08-14T01:42:39.631Z,0.00
2022-08-14T01:43:39.590Z,0.00
2022-08-14T01:44:41.195Z,0.00
2022-08-14T01:45:40.197Z,0.00
2022-08-14T01:46:39.462Z,0.00
2022-08-14T01:47:39.420Z,0.00
2022-08-14T01:48:39.380Z,0.00
2022-08-14T01:49:40.507Z,0.00
2022-08-14T01:50:39.312Z,0.00
2022-08-14T01:51:39.254Z,0.00
2022-08-14T01:52:58.803Z,0.00
2022-08-14T01:53:39.168Z,0.00
2022-08-14T01:54:39.126Z,0.00
2022-08-14T01:55:39.084Z,0.00
2022-08-14T01:56:39.511Z,0.00
2022-08-14T01:58:00.510Z,0.00
2022-08-14T01:58:57.433Z,0.00
2022-08-14T01:59:38.918Z,0.00
2022-08-14T02:00:38.893Z,0.00
2022-08-14T02:01:41.831Z,0.00
2022-08-14T02:02:38.787Z,0.00
2022-08-14T02:03:40.122Z,0.00
2022-08-14T02:04:54.754Z,0.00
2022-08-14T02:05:39.017Z,0.00
2022-08-14T02:06:38.620Z,0.00
2022-08-14T02:07:55.742Z,0.00
2022-08-14T02:08:52.679Z,0.00
2022-08-14T02:09:38.494Z,0.00
2022-08-14T02:10:46.839Z,0.00
2022-08-14T02:11:38.408Z,0.00
2022-08-14T02:12:38.364Z,0.00
2022-08-14T02:13:38.323Z,0.00
2022-08-14T02:14:38.286Z,0.00
2022-08-14T02:15:38.240Z,0.00
2022-08-14T02:16:38.209Z,0.00
2022-08-14T02:17:38.153Z,0.00
2022-08-14T02:18:38.122Z,0.00
2022-08-14T02:19:38.069Z,0.00
2022-08-14T02:20:38.025Z,0.00
2022-08-14T02:21:43.378Z,0.00
2022-08-14T02:22:47.679Z,0.00
2022-08-14T02:23:37.899Z,0.00
2022-08-14T02:24:39.827Z,0.00
2022-08-14T02:25:37.815Z,0.00
2022-08-14T02:26:58.399Z,0.00
2022-08-14T02:28:23.040Z,0.00
2022-08-14T02:28:56.677Z,0.00
2022-08-14T02:29:59.283Z,0.00
2022-08-14T02:30:38.220Z,0.00
2022-08-14T02:31:42.437Z,0.00
2022-08-14T02:32:37.593Z,0.00
2022-08-14T02:33:37.470Z,0.00
2022-08-14T02:34:37.433Z,0.00
2022-08-14T02:35:40.571Z,0.00
2022-08-14T02:37:02.584Z,0.00
2022-08-14T02:37:37.442Z,0.00
2022-08-14T02:38:37.257Z,0.00
2022-08-14T02:39:37.471Z,0.00
2022-08-14T02:40:37.172Z,0.00
2022-08-14T02:41:39.954Z,0.00
2022-08-14T02:42:37.671Z,0.00
2022-08-14T02:43:46.287Z,0.00
2022-08-14T02:44:39.489Z,0.00
2022-08-14T02:45:38.671Z,0.00
2022-08-14T02:46:36.915Z,0.00
2022-08-14T02:47:38.842Z,0.00
2022-08-14T02:49:02.726Z,0.00
2022-08-14T02:49:36.793Z,0.00
2022-08-14T02:50:36.748Z,0.00
2022-08-14T02:51:37.024Z,0.00
2022-08-14T02:52:57.787Z,0.00
2022-08-14T02:53:37.441Z,0.00
2022-08-14T02:54:36.593Z,0.00
2022-08-14T02:55:36.533Z,0.00
2022-08-14T02:57:16.012Z,0.00
2022-08-14T02:57:40.489Z,0.00
2022-08-14T02:58:37.201Z,0.00
2022-08-14T02:59:36.363Z,0.00
2022-08-14T03:00:40.103Z,0.00
2022-08-14T03:01:43.255Z,0.00
2022-08-14T03:02:56.363Z,0.00
2022-08-14T03:03:38.755Z,0.00
2022-08-14T03:04:36.153Z,0.00
2022-08-14T03:05:36.936Z,0.00
2022-08-14T03:06:57.564Z,0.00
2022-08-14T03:07:36.020Z,0.00
2022-08-14T03:08:35.979Z,0.00
2022-08-14T03:10:25.028Z,0.00
2022-08-14T03:10:35.891Z,0.00
2022-08-14T03:11:35.865Z,0.00
2022-08-14T03:12:35.810Z,0.00
2022-08-14T03:13:35.766Z,0.00
2022-08-14T03:14:35.721Z,0.00
2022-08-14T03:15:35.677Z,0.00
2022-08-14T03:16:35.653Z,0.00
2022-08-14T03:17:41.236Z,0.00
2022-08-14T03:18:35.555Z,0.00
2022-08-14T03:19:35.512Z,0.00
2022-08-14T03:20:35.464Z,0.00
2022-08-14T03:21:35.434Z,0.00
2022-08-14T03:22:35.396Z,0.00
2022-08-14T03:23:36.297Z,0.00
2022-08-14T03:24:35.296Z,0.00
2022-08-14T03:25:37.821Z,0.00
2022-08-14T03:26:35.225Z,0.00
2022-08-14T03:27:48.206Z,0.00
2022-08-14T03:28:36.614Z,0.00
2022-08-14T03:29:35.079Z,0.00
2022-08-14T03:30:39.834Z,0.00
2022-08-14T03:31:35.005Z,0.00
2022-08-14T03:32:34.950Z,0.00
2022-08-14T03:33:38.324Z,0.00
2022-08-14T03:34:48.063Z,0.00
2022-08-14T03:35:40.385Z,0.00
2022-08-14T03:37:28.796Z,0.00
2022-08-14T03:39:06.368Z,0.00
2022-08-14T03:39:13.037Z,0.00
2022-08-14T03:39:34.671Z,0.00
2022-08-14T03:40:34.608Z,0.00
2022-08-14T03:41:34.569Z,0.00
2022-08-14T03:42:36.678Z,0.00
2022-08-14T03:43:34.482Z,0.00
2022-08-14T03:45:18.475Z,0.00
2022-08-14T03:45:35.485Z,0.00
2022-08-14T03:46:38.810Z,0.00
2022-08-14T03:47:55.712Z,0.00
2022-08-14T03:48:40.355Z,0.00
2022-08-14T03:49:34.224Z,0.00
2022-08-14T03:50:34.185Z,0.00
2022-08-14T03:51:34.142Z,0.00
2022-08-14T03:52:40.505Z,0.00
2022-08-14T03:53:34.954Z,0.00
2022-08-14T03:54:34.015Z,0.00
2022-08-14T03:55:33.969Z,0.00
2022-08-14T03:56:33.924Z,0.00
2022-08-14T03:57:37.212Z,0.00
2022-08-14T03:58:35.355Z,0.00
2022-08-14T03:59:33.810Z,0.00
2022-08-14T04:00:43.317Z,0.00
2022-08-14T04:01:41.442Z,0.00
2022-08-14T04:02:37.339Z,0.00
2022-08-14T04:03:34.468Z,0.00
2022-08-14T04:04:33.768Z,0.00
2022-08-14T04:05:38.216Z,0.00
2022-08-14T04:06:33.496Z,0.00
2022-08-14T04:07:36.092Z,0.00
2022-08-14T04:08:33.441Z,0.00
2022-08-14T04:09:33.369Z,0.00
2022-08-14T04:10:33.341Z,0.00
2022-08-14T04:11:33.285Z,5.63
2022-08-14T04:12:33.242Z,5.63
2022-08-14T04:13:33.803Z,5.63
2022-08-14T04:14:33.179Z,5.63
2022-08-14T04:15:56.293Z,5.63
2022-08-14T04:16:33.076Z,5.63
2022-08-14T04:17:33.027Z,5.63
2022-08-14T04:18:33.835Z,11.25
2022-08-14T04:19:36.363Z,11.25
2022-08-14T04:20:32.925Z,11.25
2022-08-14T04:21:40.025Z,11.25
2022-08-14T04:22:32.815Z,16.88
2022-08-14T04:23:33.415Z,16.88
2022-08-14T04:24:38.943Z,16.88
2022-08-14T04:25:32.685Z,16.88
2022-08-14T04:26:43.270Z,22.50
2022-08-14T04:27:32.603Z,22.50
2022-08-14T04:29:09.145Z,22.50
2022-08-14T04:29:32.648Z,28.13
2022-08-14T04:30:32.780Z,28.13
2022-08-14T04:32:58.017Z,33.75
2022-08-14T04:33:02.346Z,33.75
2022-08-14T04:33:32.389Z,33.75
2022-08-14T04:34:32.310Z,39.38
2022-08-14T04:35:56.097Z,39.38
2022-08-14T04:36:32.226Z,39.38
2022-08-14T04:37:32.177Z,45.00
2022-08-14T04:38:36.471Z,45.00
2022-08-14T04:39:32.124Z,45.00
2022-08-14T04:40:32.055Z,45.00
2022-08-14T04:41:32.186Z,50.63
2022-08-14T04:42:32.003Z,50.63
2022-08-14T04:43:38.709Z,50.63
2022-08-14T04:44:36.946Z,56.25
2022-08-14T04:45:31.831Z,56.25
2022-08-14T04:46:55.519Z,56.25
2022-08-14T04:47:31.758Z,61.88
2022-08-14T04:48:43.192Z,61.88
2022-08-14T04:49:31.663Z,67.50
2022-08-14T04:50:38.026Z,67.50
2022-08-14T04:51:37.449Z,73.13
2022-08-14T04:52:31.561Z,73.13
2022-08-14T04:53:34.921Z,78.75
2022-08-14T04:54:31.445Z,78.75
2022-08-14T04:55:31.405Z,78.75
2022-08-14T04:56:34.572Z,84.38
2022-08-14T04:57:31.314Z,90.00
2022-08-14T04:58:32.938Z,90.00
2022-08-14T04:59:31.231Z,95.63
2022-08-14T05:00:31.190Z,101.25
2022-08-14T05:01:39.609Z,101.25
2022-08-14T05:02:31.124Z,106.88
2022-08-14T05:03:31.064Z,112.50
2022-08-14T05:04:31.042Z,112.50
2022-08-14T05:05:32.329Z,118.13
2022-08-14T05:06:38.482Z,118.13
2022-08-14T05:07:46.465Z,123.75
2022-08-14T05:08:32.122Z,123.75
2022-08-14T05:09:30.830Z,123.75
2022-08-14T05:10:32.151Z,129.38
2022-08-14T05:11:30.721Z,129.38
2022-08-14T05:13:24.526Z,135.00
2022-08-14T05:13:38.368Z,140.63
2022-08-14T05:14:43.101Z,140.63
2022-08-14T05:15:32.162Z,146.25
2022-08-14T05:16:30.508Z,146.25
2022-08-14T05:17:43.572Z,151.88
2022-08-14T05:19:17.239Z,151.88
2022-08-14T05:19:31.957Z,151.88
2022-08-14T05:21:04.547Z,157.50
2022-08-14T05:22:00.606Z,157.50
2022-08-14T05:22:30.249Z,163.13
2022-08-14T05:23:30.202Z,163.13
2022-08-14T05:24:30.161Z,168.75
2022-08-14T05:25:30.715Z,168.75
2022-08-14T05:26:30.089Z,174.38
2022-08-14T05:27:30.987Z,174.38
2022-08-14T05:28:29.993Z,180.00
2022-08-14T05:29:29.951Z,180.00
2022-08-14T05:30:29.909Z,180.00
2022-08-14T05:31:39.338Z,185.63
2022-08-14T05:32:29.826Z,185.63
2022-08-14T05:33:30.134Z,185.63
2022-08-14T05:34:31.646Z,191.25
2022-08-14T05:35:29.705Z,191.25
2022-08-14T05:36:29.649Z,191.25
2022-08-14T05:37:30.107Z,196.88
2022-08-14T05:38:31.180Z,196.88
2022-08-14T05:39:29.558Z,202.50
2022-08-14T05:40:29.498Z,202.50
2022-08-14T05:41:52.914Z,202.50
2022-08-14T05:42:32.102Z,208.13
2022-08-14T05:43:40.879Z,208.13
2022-08-14T05:44:30.884Z,208.13
2022-08-14T05:45:29.271Z,208.13
2022-08-14T05:46:29.226Z,208.13
2022-08-14T05:47:33.901Z,213.75
2022-08-14T05:48:33.445Z,213.75
2022-08-14T05:49:33.242Z,213.75
2022-08-14T05:50:29.251Z,213.75
2022-08-14T05:51:29.045Z,213.75
2022-08-14T05:52:39.048Z,219.38
2022-08-14T05:53:28.926Z,219.38
2022-08-14T05:54:35.275Z,219.38
2022-08-14T05:55:28.846Z,219.38
2022-08-14T05:56:29.166Z,225.00
2022-08-14T05:57:28.793Z,225.00
2022-08-14T05:58:33.817Z,230.63
2022-08-14T05:59:34.990Z,230.63
2022-08-14T06:03:47.740Z,241.88
2022-08-14T06:04:47.370Z,247.50
2022-08-14T06:05:47.367Z,253.13
2022-08-14T06:06:47.276Z,253.13
2022-08-14T06:07:47.450Z,258.75
2022-08-14T06:08:47.461Z,264.38
2022-08-14T06:09:51.099Z,264.38
2022-08-14T06:10:47.267Z,264.38
2022-08-14T06:11:49.864Z,270.00
2022-08-14T06:12:56.727Z,275.63
2022-08-14T06:13:46.970Z,281.25
2022-08-14T06:14:47.006Z,286.88
2022-08-14T06:15:47.060Z,292.50
2022-08-14T06:16:47.013Z,298.13
2022-08-14T06:17:47.131Z,303.75
2022-08-14T06:18:46.769Z,309.38
2022-08-14T06:19:46.716Z,309.38
2022-08-14T06:20:46.834Z,315.00
2022-08-14T06:21:46.660Z,320.63
2022-08-14T06:22:46.647Z,326.25
2022-08-14T06:23:48.941Z,331.88
2022-08-14T06:24:46.816Z,337.50
2022-08-14T06:25:52.729Z,343.13
2022-08-14T06:26:54.233Z,348.75
2022-08-14T06:27:46.379Z,354.38
2022-08-14T06:28:47.609Z,354.38
2022-08-14T06:29:46.298Z,360.00
2022-08-14T06:30:47.291Z,360.00
2022-08-14T06:32:00.145Z,360.00
2022-08-14T06:32:46.407Z,365.63
2022-08-14T06:35:04.644Z,365.63
2022-08-14T06:35:09.738Z,365.63
2022-08-14T06:35:46.667Z,360.00
2022-08-14T06:36:46.302Z,360.00
2022-08-14T06:37:46.931Z,354.38
2022-08-14T06:38:45.921Z,360.00
2022-08-14T06:39:46.141Z,348.75
2022-08-14T06:40:45.981Z,348.75
2022-08-14T06:41:58.623Z,343.13
2022-08-14T06:42:47.294Z,337.50
2022-08-14T06:43:45.873Z,331.88
2022-08-14T06:44:45.670Z,331.88
2022-08-14T06:45:53.942Z,326.25
2022-08-14T06:46:49.425Z,320.63
2022-08-14T06:47:45.700Z,320.63
2022-08-14T06:48:45.510Z,309.38
2022-08-14T06:49:56.061Z,303.75
2022-08-14T06:50:45.447Z,303.75
2022-08-14T06:51:45.408Z,303.75
2022-08-14T06:52:50.391Z,298.13
2022-08-14T06:53:45.565Z,303.75
2022-08-14T06:54:45.274Z,315.00
2022-08-14T06:55:57.902Z,315.00
2022-08-14T06:56:54.227Z,315.00
2022-08-14T06:57:45.410Z,320.63
2022-08-14T06:58:45.331Z,320.63
2022-08-14T06:59:45.073Z,326.25
2022-08-14T07:00:45.175Z,331.88
2022-08-14T07:01:44.995Z,343.13
2022-08-14T07:02:45.071Z,337.50
2022-08-14T07:03:44.919Z,343.13
2022-08-14T07:04:46.021Z,354.38
2022-08-14T07:05:55.819Z,371.25
2022-08-14T07:06:45.632Z,376.88
2022-08-14T07:07:45.023Z,388.13
2022-08-14T07:08:44.828Z,393.75
2022-08-14T07:09:50.579Z,405.00
2022-08-14T07:10:44.845Z,405.00
2022-08-14T07:11:44.580Z,416.25
2022-08-14T07:13:01.128Z,421.88
2022-08-14T07:13:44.496Z,427.50
2022-08-14T07:14:44.457Z,438.75
2022-08-14T07:15:44.676Z,444.38
2022-08-14T07:16:44.377Z,450.00
2022-08-14T07:17:44.478Z,461.25
2022-08-14T07:18:44.755Z,466.88
2022-08-14T07:19:44.253Z,478.13
2022-08-14T07:20:44.204Z,489.38
2022-08-14T07:21:44.202Z,500.63
2022-08-14T07:22:49.987Z,500.63
2022-08-14T07:23:44.389Z,506.25
2022-08-14T07:24:44.219Z,517.50
2022-08-14T07:25:44.344Z,523.13
2022-08-14T07:26:44.135Z,534.38
2022-08-14T07:27:43.986Z,540.00
2022-08-14T07:28:44.175Z,540.00
2022-08-14T07:29:43.851Z,551.25
2022-08-14T07:30:50.915Z,556.88
2022-08-14T07:31:43.768Z,579.38
2022-08-14T07:32:52.056Z,585.00
2022-08-14T07:33:45.555Z,601.88
2022-08-14T07:34:43.650Z,618.75
2022-08-14T07:35:58.238Z,624.38
2022-08-14T07:36:58.082Z,630.00
2022-08-14T07:37:43.535Z,635.63
2022-08-14T07:38:43.813Z,635.63
2022-08-14T07:39:44.120Z,635.63
2022-08-14T07:40:43.621Z,635.63
2022-08-14T07:41:43.675Z,630.00
2022-08-14T07:42:43.513Z,624.38
2022-08-14T07:43:44.164Z,613.13
2022-08-14T07:44:46.233Z,596.25
2022-08-14T07:45:43.454Z,607.50
2022-08-14T07:46:43.179Z,607.50
2022-08-14T07:47:43.154Z,596.25
2022-08-14T07:48:43.104Z,596.25
2022-08-14T07:49:43.543Z,601.88
2022-08-14T07:50:43.027Z,607.50
2022-08-14T07:51:43.185Z,613.13
2022-08-14T07:52:43.117Z,624.38
2022-08-14T07:53:42.911Z,635.63
2022-08-14T07:54:43.003Z,635.63
2022-08-14T07:55:43.017Z,646.88
2022-08-14T07:56:48.338Z,646.88
2022-08-14T07:57:43.028Z,652.50
2022-08-14T07:58:51.610Z,663.75
2022-08-14T07:59:44.535Z,663.75
2022-08-14T08:00:42.843Z,669.38
2022-08-14T08:01:51.105Z,658.13
2022-08-14T08:02:42.599Z,658.13
2022-08-14T08:03:42.891Z,675.00
2022-08-14T08:04:42.485Z,686.25
2022-08-14T08:05:42.576Z,691.88
2022-08-14T08:06:42.410Z,686.25
2022-08-14T08:07:42.484Z,680.63
2022-08-14T08:08:42.365Z,691.88
2022-08-14T08:09:45.915Z,697.50
2022-08-14T08:10:57.101Z,703.13
2022-08-14T08:11:42.238Z,731.25
2022-08-14T08:12:42.522Z,759.38
2022-08-14T08:13:42.140Z,793.13
2022-08-14T08:14:56.037Z,810.00
2022-08-14T08:15:42.064Z,866.25
2022-08-14T08:16:42.029Z,1158.75
2022-08-14T08:17:42.675Z,1350.00
2022-08-14T08:18:41.960Z,2019.38
2022-08-14T08:19:42.370Z,2008.13
2022-08-14T08:20:41.875Z,1642.50
2022-08-14T08:21:43.902Z,1552.50
2022-08-14T08:22:43.354Z,1642.50
2022-08-14T08:23:50.989Z,1513.13
2022-08-14T08:24:41.814Z,1411.88
2022-08-14T08:25:41.806Z,1344.38
2022-08-14T08:26:41.657Z,1344.38
2022-08-14T08:27:44.582Z,1350.00
2022-08-14T08:28:41.581Z,1344.38
2022-08-14T08:29:41.625Z,1338.75
2022-08-14T08:30:49.251Z,1321.88
2022-08-14T08:31:43.160Z,1361.25
2022-08-14T08:32:42.989Z,1372.50
2022-08-14T08:33:41.448Z,1378.13
2022-08-14T08:34:41.355Z,1361.25
2022-08-14T08:35:47.055Z,1350.00
2022-08-14T08:36:41.302Z,1327.50
2022-08-14T08:37:43.664Z,1350.00
2022-08-14T08:39:14.880Z,1333.13
2022-08-14T08:40:01.454Z,1288.13
2022-08-14T08:40:42.381Z,1293.75
2022-08-14T08:41:41.298Z,1299.38
2022-08-14T08:42:44.852Z,1305.00
2022-08-14T08:43:46.170Z,1372.50
2022-08-14T08:44:41.124Z,1473.75
2022-08-14T08:45:40.971Z,1490.63
2022-08-14T08:46:41.147Z,1501.88
2022-08-14T08:47:40.895Z,1513.13
2022-08-14T08:48:50.132Z,1518.75
2022-08-14T08:49:42.338Z,1485.00
2022-08-14T08:50:42.639Z,1423.13
2022-08-14T08:51:42.935Z,1473.75
2022-08-14T08:52:41.029Z,1496.25
2022-08-14T08:53:40.874Z,1501.88
2022-08-14T08:54:40.677Z,1501.88
2022-08-14T08:55:40.818Z,1507.50
2022-08-14T08:56:40.656Z,1456.88
2022-08-14T08:57:40.698Z,1501.88
2022-08-14T08:58:40.523Z,1518.75
2022-08-14T08:59:42.141Z,1518.75
2022-08-14T09:00:40.506Z,1535.63
2022-08-14T09:01:40.425Z,1530.00
2022-08-14T09:02:40.423Z,1541.25
2022-08-14T09:03:41.076Z,1541.25
2022-08-14T09:04:45.416Z,1546.88
2022-08-14T09:05:40.290Z,1552.50
2022-08-14T09:07:00.118Z,1586.25
2022-08-14T09:07:40.226Z,1631.25
2022-08-14T09:08:40.236Z,1687.50
2022-08-14T09:09:54.215Z,1845.00
2022-08-14T09:10:40.212Z,2396.25
2022-08-14T09:11:40.088Z,3110.63
2022-08-14T09:12:40.294Z,3420.00
2022-08-14T09:13:40.041Z,3650.63
2022-08-14T09:14:40.252Z,3661.88
2022-08-14T09:15:42.663Z,3639.38
2022-08-14T09:16:40.019Z,3515.63
2022-08-14T09:17:41.200Z,3780.00
2022-08-14T09:18:39.872Z,3785.63
2022-08-14T09:19:40.088Z,3858.75
2022-08-14T09:20:39.845Z,3763.13
2022-08-14T09:21:39.781Z,3313.13
2022-08-14T09:22:47.461Z,3369.38
2022-08-14T09:24:26.799Z,3206.25
2022-08-14T09:24:44.022Z,3285.00
2022-08-14T09:25:59.633Z,3172.50
2022-08-14T09:26:49.552Z,2801.25
2022-08-14T09:27:39.852Z,2632.50
2022-08-14T09:28:39.550Z,3369.38
2022-08-14T09:29:39.524Z,2981.25
2022-08-14T09:30:39.489Z,2874.38
2022-08-14T09:31:42.931Z,2801.25
2022-08-14T09:33:09.287Z,2806.88
2022-08-14T09:33:43.045Z,2812.50
2022-08-14T09:34:39.368Z,2857.50
2022-08-14T09:35:39.341Z,2688.75
2022-08-14T09:36:39.307Z,2941.88
2022-08-14T09:37:39.289Z,3071.25
2022-08-14T09:38:40.576Z,3217.50
2022-08-14T09:39:39.243Z,3330.00
2022-08-14T09:40:39.186Z,3240.00
2022-08-14T09:42:17.332Z,3313.13
2022-08-14T09:42:45.251Z,3082.50
2022-08-14T09:43:39.112Z,2925.00
2022-08-14T09:44:39.089Z,3228.75
2022-08-14T09:45:39.989Z,3504.38
2022-08-14T09:46:39.006Z,3082.50
2022-08-14T09:47:38.976Z,2700.00
2022-08-14T09:48:38.945Z,2688.75
2022-08-14T09:49:40.603Z,2958.75
2022-08-14T09:50:38.903Z,2784.38
2022-08-14T09:51:44.991Z,2469.38
2022-08-14T09:52:38.825Z,2778.75
2022-08-14T09:54:17.725Z,3228.75
2022-08-14T09:54:38.763Z,3442.50
2022-08-14T09:55:41.391Z,3543.75
2022-08-14T09:56:38.731Z,3611.25
2022-08-14T09:57:38.679Z,3543.75
2022-08-14T09:58:38.647Z,3324.38
2022-08-14T09:59:38.622Z,3425.63
2022-08-14T10:00:38.583Z,3645.00
2022-08-14T10:01:38.561Z,3718.13
2022-08-14T10:02:38.590Z,3886.88
2022-08-14T10:03:38.495Z,4241.25
2022-08-14T10:04:42.285Z,3915.00
2022-08-14T10:05:39.388Z,4038.75
2022-08-14T10:06:38.404Z,3583.13
2022-08-14T10:07:41.168Z,3791.25
2022-08-14T10:08:38.373Z,3690.00
2022-08-14T10:09:39.361Z,3836.25
2022-08-14T10:10:38.288Z,3954.38
2022-08-14T10:11:38.261Z,4050.00
2022-08-14T10:12:38.232Z,4286.25
2022-08-14T10:13:52.767Z,4359.38
2022-08-14T10:14:38.192Z,4072.50
2022-08-14T10:15:38.146Z,3746.25
2022-08-14T10:16:38.120Z,3819.38
2022-08-14T10:17:39.000Z,4083.75
2022-08-14T10:18:38.058Z,4066.88
2022-08-14T10:19:38.035Z,3746.25
2022-08-14T10:20:40.197Z,4027.50
2022-08-14T10:21:38.778Z,3976.88
2022-08-14T10:23:13.222Z,3853.13
2022-08-14T10:23:37.912Z,4151.25
2022-08-14T10:24:37.891Z,4336.88
2022-08-14T10:25:37.856Z,4561.88
2022-08-14T10:26:37.846Z,4336.88
2022-08-14T10:27:37.816Z,4145.63
2022-08-14T10:28:51.429Z,4263.75
2022-08-14T10:29:37.744Z,4100.63
2022-08-14T10:30:37.719Z,4095.00
2022-08-14T10:31:44.758Z,4443.75
2022-08-14T10:32:41.929Z,4415.63
2022-08-14T10:33:37.629Z,4241.25
2022-08-14T10:34:38.693Z,4303.13
2022-08-14T10:35:37.578Z,4466.25
2022-08-14T10:36:40.977Z,4196.25
2022-08-14T10:37:37.513Z,4286.25
2022-08-14T10:38:37.491Z,4640.63
2022-08-14T10:39:37.484Z,4584.38
2022-08-14T10:40:44.197Z,4550.63
2022-08-14T10:41:46.695Z,4516.88
2022-08-14T10:42:37.379Z,4325.63
2022-08-14T10:43:37.349Z,4348.13
2022-08-14T10:44:37.324Z,4106.25
2022-08-14T10:45:46.348Z,3791.25
2022-08-14T10:47:39.943Z,3853.13
2022-08-14T10:48:06.954Z,3498.75
2022-08-14T10:48:44.876Z,3701.25
2022-08-14T10:49:37.185Z,3622.50
2022-08-14T10:50:37.155Z,3453.75
2022-08-14T10:51:39.857Z,3510.00
2022-08-14T10:52:37.098Z,3493.13
2022-08-14T10:53:37.085Z,3628.13
2022-08-14T10:54:40.009Z,3493.13
2022-08-14T10:55:38.384Z,3650.63
2022-08-14T10:56:36.981Z,3763.13
2022-08-14T10:57:36.950Z,3476.25
2022-08-14T10:58:36.942Z,3346.88
2022-08-14T10:59:38.179Z,3121.88
2022-08-14T11:00:36.863Z,3003.75
2022-08-14T11:01:38.413Z,2761.88
2022-08-14T11:02:50.244Z,2829.38
2022-08-14T11:03:56.137Z,2840.63
2022-08-14T11:04:37.610Z,2986.88
2022-08-14T11:05:36.715Z,2902.50
2022-08-14T11:06:36.700Z,2851.88
2022-08-14T11:07:36.649Z,2739.38
2022-08-14T11:08:36.619Z,2671.88
2022-08-14T11:09:36.594Z,2694.38
2022-08-14T11:10:36.561Z,2548.13
2022-08-14T11:11:37.327Z,2576.25
2022-08-14T11:12:40.556Z,2638.13
2022-08-14T11:13:36.474Z,2773.13
2022-08-14T11:14:36.437Z,2671.88
2022-08-14T11:15:36.406Z,2666.25
2022-08-14T11:16:38.241Z,2553.75
2022-08-14T11:17:36.342Z,2520.00
2022-08-14T11:18:40.001Z,2480.63
2022-08-14T11:19:36.280Z,2542.50
2022-08-14T11:20:36.250Z,2671.88
2022-08-14T11:21:36.213Z,2536.88
2022-08-14T11:22:52.764Z,2503.13
2022-08-14T11:23:37.806Z,2486.25
2022-08-14T11:24:50.517Z,2548.13
2022-08-14T11:25:41.392Z,2514.38
2022-08-14T11:26:36.168Z,2542.50
2022-08-14T11:27:36.045Z,2615.63
2022-08-14T11:28:47.381Z,2626.88
2022-08-14T11:29:36.209Z,2750.63
2022-08-14T11:30:52.322Z,2880.00
2022-08-14T11:31:39.052Z,2801.25
2022-08-14T11:32:35.874Z,2750.63
2022-08-14T11:33:35.847Z,2947.50
2022-08-14T11:34:35.791Z,3026.25
2022-08-14T11:35:44.226Z,2902.50
2022-08-14T11:37:09.529Z,3009.38
2022-08-14T11:37:40.705Z,3183.75
2022-08-14T11:38:35.664Z,3420.00
2022-08-14T11:39:37.150Z,3369.38
2022-08-14T11:40:35.595Z,3178.13
2022-08-14T11:41:37.313Z,3150.00
2022-08-14T11:42:57.621Z,2953.13
2022-08-14T11:43:35.498Z,2683.13
2022-08-14T11:44:45.642Z,2655.00
2022-08-14T11:45:36.971Z,2452.50
2022-08-14T11:46:37.438Z,2317.50
2022-08-14T11:47:43.834Z,2356.88
2022-08-14T11:49:02.082Z,2407.50
2022-08-14T11:49:35.302Z,2351.25
2022-08-14T11:50:37.294Z,2340.00
2022-08-14T11:51:50.849Z,2379.38
2022-08-14T11:52:35.218Z,2401.88
2022-08-14T11:53:35.170Z,2486.25
2022-08-14T11:54:35.373Z,2570.63
2022-08-14T11:55:35.111Z,2497.50
2022-08-14T11:56:35.087Z,2497.50
2022-08-14T11:57:35.039Z,2497.50
2022-08-14T11:58:35.016Z,2486.25
2022-08-14T11:59:34.974Z,2587.50
2022-08-14T12:00:39.521Z,2666.25
2022-08-14T12:01:40.960Z,2604.38
2022-08-14T12:03:01.213Z,2621.25
2022-08-14T12:03:45.985Z,2610.00
2022-08-14T12:04:34.840Z,2716.88
2022-08-14T12:05:35.998Z,2638.13
2022-08-14T12:06:35.916Z,2587.50
2022-08-14T12:07:34.809Z,2542.50
2022-08-14T12:08:34.676Z,2430.00
2022-08-14T12:09:34.677Z,2261.25
2022-08-14T12:10:37.250Z,2171.25
2022-08-14T12:11:34.571Z,2081.25
2022-08-14T12:12:35.704Z,2013.75
2022-08-14T12:13:34.793Z,1957.50
2022-08-14T12:14:35.705Z,1890.00
2022-08-14T12:15:34.463Z,1856.25
2022-08-14T12:16:34.430Z,1839.38
2022-08-14T12:17:38.233Z,1805.63
2022-08-14T12:18:34.339Z,1755.00
2022-08-14T12:19:35.062Z,1738.13
2022-08-14T12:20:34.271Z,1726.88
2022-08-14T12:21:34.244Z,1710.00
2022-08-14T12:22:34.218Z,1693.13
2022-08-14T12:23:34.168Z,1687.50
2022-08-14T12:24:36.618Z,1687.50
2022-08-14T12:25:34.719Z,1681.88
2022-08-14T12:26:40.612Z,1687.50
2022-08-14T12:27:34.053Z,1698.75
2022-08-14T12:29:00.072Z,1721.25
2022-08-14T12:29:34.867Z,1743.75
2022-08-14T12:30:39.820Z,1788.75
2022-08-14T12:31:36.290Z,1783.13
2022-08-14T12:32:33.860Z,1800.00
2022-08-14T12:33:34.218Z,1822.50
2022-08-14T12:34:33.817Z,1878.75
2022-08-14T12:35:33.757Z,1912.50
2022-08-14T12:36:33.726Z,1963.13
2022-08-14T12:37:33.687Z,1996.88
2022-08-14T12:38:33.656Z,2008.13
2022-08-14T12:39:39.803Z,2013.75
2022-08-14T12:40:33.598Z,2075.63